createdAt,value
2022-07-25T00:01:52.570Z,10.00
2022-07-25T00:04:20.532Z,9.90
2022-07-25T00:06:49.840Z,10.17
2022-07-25T00:09:17.352Z,10.07
2022-07-25T00:11:45.246Z,12.07
2022-07-25T00:14:12.760Z,11.90
2022-07-25T00:16:40.228Z,9.53
2022-07-25T00:19:07.777Z,12.10
2022-07-25T00:21:35.255Z,12.97
2022-07-25T00:24:03.170Z,9.23
2022-07-25T00:26:30.924Z,10.10
2022-07-25T00:28:58.572Z,10.33
2022-07-25T00:31:26.094Z,9.50
2022-07-25T00:33:53.673Z,10.63
2022-07-25T00:36:21.141Z,11.10
2022-07-25T00:38:48.629Z,11.30
2022-07-25T00:41:16.197Z,9.13
2022-07-25T00:43:46.998Z,13.87
2022-07-25T00:46:15.552Z,9.57
2022-07-25T00:48:46.664Z,10.87
2022-07-25T00:51:14.274Z,11.57
2022-07-25T00:53:41.833Z,9.30
2022-07-25T00:56:09.604Z,10.67
2022-07-25T00:58:37.069Z,10.90
2022-07-25T01:01:05.046Z,10.43
2022-07-25T01:03:32.606Z,10.47
2022-07-25T01:06:00.293Z,8.20
2022-07-25T01:08:28.337Z,10.67
2022-07-25T01:10:55.861Z,10.73
2022-07-25T01:13:23.361Z,11.43
2022-07-25T01:15:51.083Z,8.07
2022-07-25T01:18:25.540Z,9.90
2022-07-25T01:20:53.086Z,9.20
2022-07-25T01:23:20.571Z,11.73
2022-07-25T01:25:48.182Z,10.50
2022-07-25T01:28:15.685Z,9.83
2022-07-25T01:30:43.474Z,9.43
2022-07-25T01:33:11.014Z,9.10
2022-07-25T01:35:43.327Z,12.37
2022-07-25T01:38:11.324Z,9.33
2022-07-25T01:40:38.880Z,9.80
2022-07-25T01:43:06.474Z,9.53
2022-07-25T01:45:34.438Z,9.47
2022-07-25T01:48:02.006Z,11.50
2022-07-25T01:50:29.701Z,11.13
2022-07-25T01:52:57.372Z,11.27
2022-07-25T01:55:24.921Z,8.30
2022-07-25T01:57:54.095Z,11.67
2022-07-25T02:00:21.579Z,12.40
2022-07-25T02:02:49.072Z,12.63
2022-07-25T02:05:16.704Z,10.37
2022-07-25T02:07:44.163Z,10.70
2022-07-25T02:10:11.922Z,9.07
2022-07-25T02:12:39.472Z,9.90
2022-07-25T02:15:07.425Z,9.43
2022-07-25T02:17:46.327Z,9.50
2022-07-25T02:20:14.022Z,8.73
2022-07-25T02:22:41.677Z,15.67
2022-07-25T02:25:09.442Z,11.23
2022-07-25T02:27:36.930Z,13.77
2022-07-25T02:30:05.088Z,12.10
2022-07-25T02:32:32.592Z,10.53
2022-07-25T02:35:00.143Z,11.50
2022-07-25T02:37:27.669Z,10.00
2022-07-25T02:39:55.181Z,9.17
2022-07-25T02:42:22.677Z,9.67
2022-07-25T02:44:50.353Z,13.20
2022-07-25T02:47:17.859Z,10.93
2022-07-25T02:49:45.388Z,12.10
2022-07-25T02:52:12.874Z,11.23
2022-07-25T02:54:40.372Z,15.17
2022-07-25T02:57:07.870Z,10.83
2022-07-25T02:59:36.229Z,10.30
2022-07-25T03:02:03.869Z,8.60
2022-07-25T03:04:31.444Z,9.57
2022-07-25T03:06:59.196Z,13.37
2022-07-25T03:09:26.717Z,9.30
2022-07-25T03:11:54.388Z,18.57
2022-07-25T03:14:22.089Z,9.77
2022-07-25T03:17:04.916Z,8.67
2022-07-25T03:19:32.651Z,11.27
2022-07-25T03:22:00.124Z,10.97
2022-07-25T03:24:27.662Z,10.87
2022-07-25T03:26:55.151Z,14.00
2022-07-25T03:29:22.669Z,12.07
2022-07-25T03:31:50.240Z,9.57
2022-07-25T03:34:17.800Z,8.40
2022-07-25T03:36:45.271Z,12.73
2022-07-25T03:39:12.744Z,9.97
2022-07-25T03:41:40.242Z,13.70
2022-07-25T03:44:08.077Z,11.10
2022-07-25T03:46:36.087Z,11.77
2022-07-25T03:49:03.630Z,10.57
2022-07-25T03:51:31.213Z,8.97
2022-07-25T03:53:58.765Z,8.60
2022-07-25T03:56:26.335Z,10.00
2022-07-25T03:58:53.980Z,7.70
2022-07-25T04:01:21.765Z,8.83
2022-07-25T04:03:49.720Z,9.40
2022-07-25T04:06:17.319Z,8.00
2022-07-25T04:08:44.845Z,9.10
2022-07-25T04:11:12.289Z,9.97
2022-07-25T04:13:39.752Z,8.73
2022-07-25T04:16:11.522Z,7.93
2022-07-25T04:18:43.102Z,9.40
2022-07-25T04:21:11.409Z,9.43
2022-07-25T04:23:39.034Z,9.13
2022-07-25T04:26:06.638Z,9.00
2022-07-25T04:28:34.246Z,8.97
2022-07-25T04:31:01.839Z,8.73
2022-07-25T04:33:29.539Z,8.10
2022-07-25T04:35:57.207Z,9.70
2022-07-25T04:38:24.861Z,9.00
2022-07-25T04:40:52.393Z,7.20
2022-07-25T04:43:20.912Z,7.43
2022-07-25T04:45:48.673Z,8.90
2022-07-25T04:48:16.542Z,9.03
2022-07-25T04:50:44.060Z,10.73
2022-07-25T04:53:11.796Z,10.93
2022-07-25T04:55:39.259Z,7.60
2022-07-25T04:58:06.799Z,6.90
2022-07-25T05:00:34.916Z,7.23
2022-07-25T05:03:02.451Z,7.20
2022-07-25T05:05:29.925Z,10.07
2022-07-25T05:07:58.508Z,7.20
2022-07-25T05:10:26.865Z,7.17
2022-07-25T05:12:54.428Z,6.73
2022-07-25T05:15:21.945Z,7.33
2022-07-25T05:18:00.663Z,6.50
2022-07-25T05:20:28.252Z,10.87
2022-07-25T05:22:55.708Z,6.60
2022-07-25T05:25:23.335Z,9.00
2022-07-25T05:27:50.860Z,8.40
2022-07-25T05:30:18.355Z,6.53
2022-07-25T05:32:45.828Z,8.27
2022-07-25T05:35:13.500Z,8.03
2022-07-25T05:37:41.148Z,7.73
2022-07-25T05:40:09.124Z,7.63
2022-07-25T05:42:36.835Z,9.10
2022-07-25T05:45:04.511Z,8.87
2022-07-25T05:47:32.006Z,8.97
2022-07-25T05:49:59.602Z,10.17
2022-07-25T05:52:27.147Z,6.20
2022-07-25T05:54:55.071Z,12.20
2022-07-25T05:57:22.563Z,9.27
2022-07-25T05:59:50.096Z,5.87
2022-07-25T06:02:17.663Z,8.87
2022-07-25T06:04:45.427Z,7.83
2022-07-25T06:07:16.801Z,5.50
2022-07-25T06:09:44.832Z,9.53
2022-07-25T06:12:12.347Z,6.87
2022-07-25T06:14:39.854Z,7.47
2022-07-25T06:17:09.608Z,5.97
2022-07-25T06:19:37.089Z,6.07
2022-07-25T06:22:04.610Z,9.13
2022-07-25T06:24:32.332Z,8.88
2022-07-25T06:26:59.945Z,9.07
2022-07-25T06:29:27.421Z,16.50
2022-07-25T06:31:55.015Z,29.25
2022-07-25T06:34:25.782Z,8.48
2022-07-25T06:36:56.373Z,12.80
2022-07-25T06:39:24.127Z,8.57
2022-07-25T06:41:51.823Z,8.10
2022-07-25T06:44:19.322Z,8.25
2022-07-25T06:46:46.870Z,10.35
2022-07-25T06:49:14.677Z,10.32
2022-07-25T06:51:42.257Z,12.85
2022-07-25T06:54:10.163Z,11.00
2022-07-25T06:56:37.789Z,11.77
2022-07-25T06:59:05.465Z,9.40
2022-07-25T07:01:33.035Z,8.05
2022-07-25T07:04:00.576Z,10.75
2022-07-25T07:06:28.282Z,9.40
2022-07-25T07:08:55.819Z,8.57
2022-07-25T07:11:23.383Z,7.63
2022-07-25T07:13:51.050Z,8.15
2022-07-25T07:16:18.610Z,9.23
2022-07-25T07:18:49.297Z,6.18
2022-07-25T07:21:20.974Z,9.65
2022-07-25T07:23:49.335Z,8.17
2022-07-25T07:26:21.474Z,7.07
2022-07-25T07:28:50.619Z,6.13
2022-07-25T07:31:18.786Z,9.90
2022-07-25T07:33:46.655Z,5.47
2022-07-25T07:36:14.376Z,6.77
2022-07-25T07:38:41.905Z,6.05
2022-07-25T07:41:09.380Z,8.50
2022-07-25T07:43:36.968Z,8.10
2022-07-25T07:46:04.628Z,8.00
2022-07-25T07:48:32.706Z,8.33
2022-07-25T07:51:01.170Z,9.10
2022-07-25T07:53:28.995Z,8.10
2022-07-25T07:55:56.759Z,13.93
2022-07-25T07:58:24.310Z,8.37
2022-07-25T08:00:51.861Z,6.40
2022-07-25T08:03:20.868Z,6.10
2022-07-25T08:05:49.248Z,6.33
2022-07-25T08:08:16.829Z,6.70
2022-07-25T08:10:45.769Z,4.83
2022-07-25T08:13:23.944Z,5.40
2022-07-25T08:15:52.826Z,5.90
2022-07-25T08:18:20.838Z,7.30
2022-07-25T08:20:49.622Z,7.17
2022-07-25T08:23:17.381Z,7.90
2022-07-25T08:25:44.956Z,5.80
2022-07-25T08:28:12.992Z,7.40
2022-07-25T08:30:41.626Z,5.57
2022-07-25T08:33:10.525Z,6.60
2022-07-25T08:35:38.111Z,5.87
2022-07-25T08:38:05.698Z,6.87
2022-07-25T08:40:34.311Z,6.57
2022-07-25T08:43:01.931Z,7.40
2022-07-25T08:45:29.838Z,5.90
2022-07-25T08:47:57.448Z,7.90
2022-07-25T08:50:31.164Z,8.57
2022-07-25T08:53:30.314Z,7.23
2022-07-25T08:55:46.251Z,10.23
2022-07-25T08:58:14.759Z,8.07
2022-07-25T09:00:42.920Z,13.77
2022-07-25T09:03:10.845Z,6.47
2022-07-25T09:05:39.333Z,7.43
2022-07-25T09:08:17.678Z,6.87
2022-07-25T09:10:52.284Z,8.97
2022-07-25T09:13:21.133Z,5.83
2022-07-25T09:15:52.724Z,6.97
2022-07-25T09:18:24.702Z,8.33
2022-07-25T09:20:56.931Z,6.40
2022-07-25T09:23:34.026Z,6.33
2022-07-25T09:26:09.406Z,6.47
2022-07-25T09:28:46.867Z,7.13
2022-07-25T09:31:15.630Z,4.20
2022-07-25T09:33:47.205Z,5.30
2022-07-25T09:36:15.529Z,6.33
2022-07-25T09:38:52.217Z,5.57
2022-07-25T09:41:19.932Z,4.67
2022-07-25T09:43:47.401Z,5.80
2022-07-25T09:46:15.332Z,3.93
2022-07-25T09:48:45.733Z,5.10
2022-07-25T09:51:13.576Z,5.90
2022-07-25T09:53:41.117Z,6.17
2022-07-25T09:56:08.842Z,6.65
2022-07-25T09:58:36.589Z,6.50
2022-07-25T10:01:06.599Z,5.53
2022-07-25T10:03:48.132Z,4.40
2022-07-25T10:06:19.975Z,3.93
2022-07-25T10:08:48.450Z,6.80
2022-07-25T10:11:22.786Z,3.13
2022-07-25T10:13:50.717Z,3.43
2022-07-25T10:16:19.332Z,3.70
2022-07-25T10:18:51.691Z,3.10
2022-07-25T10:21:28.357Z,6.53
2022-07-25T10:24:10.042Z,4.67
2022-07-25T10:26:38.769Z,4.10
2022-07-25T10:29:12.609Z,3.53
2022-07-25T10:31:49.877Z,2.80
2022-07-25T10:34:28.364Z,4.73
2022-07-25T10:36:56.034Z,4.73
2022-07-25T10:39:23.719Z,4.37
2022-07-25T10:41:59.617Z,4.50
2022-07-25T10:44:28.777Z,4.97
2022-07-25T10:47:05.754Z,3.30
2022-07-25T10:49:36.813Z,2.93
2022-07-25T10:52:05.268Z,3.43
2022-07-25T10:54:38.971Z,3.30
2022-07-25T10:57:07.765Z,3.07
2022-07-25T10:59:39.731Z,5.83
2022-07-25T11:02:08.669Z,5.27
2022-07-25T11:04:36.979Z,3.53
2022-07-25T11:07:10.709Z,3.97
2022-07-25T11:09:38.340Z,5.27
2022-07-25T11:12:06.207Z,2.97
2022-07-25T11:14:35.450Z,2.93
2022-07-25T11:17:17.141Z,4.10
2022-07-25T11:19:45.988Z,4.13
2022-07-25T11:22:13.548Z,2.95
2022-07-25T11:24:42.357Z,6.90
2022-07-25T11:27:12.631Z,5.27
2022-07-25T11:29:40.540Z,3.53
2022-07-25T11:32:10.139Z,4.88
2022-07-25T11:34:39.456Z,6.90
2022-07-25T11:37:08.952Z,4.53
2022-07-25T11:39:37.855Z,5.30
2022-07-25T11:42:09.858Z,5.30
2022-07-25T11:44:38.444Z,6.18
2022-07-25T11:47:10.341Z,7.30
2022-07-25T11:49:47.380Z,4.63
2022-07-25T11:52:25.295Z,6.87
2022-07-25T11:54:53.494Z,2.67
2022-07-25T11:57:25.316Z,5.43
2022-07-25T11:59:53.875Z,4.20
2022-07-25T12:02:31.689Z,5.63
2022-07-25T12:05:00.741Z,6.70
2022-07-25T12:07:37.453Z,4.28
2022-07-25T12:10:10.873Z,7.38
2022-07-25T12:12:42.547Z,4.38
2022-07-25T12:15:11.231Z,4.23
2022-07-25T12:17:47.127Z,5.03
2022-07-25T12:20:16.176Z,4.27
2022-07-25T12:22:43.974Z,5.57
2022-07-25T12:25:11.826Z,4.90
2022-07-25T12:27:39.722Z,5.03
2022-07-25T12:30:07.934Z,5.73
2022-07-25T12:32:35.650Z,2.90
2022-07-25T12:35:04.265Z,2.63
2022-07-25T12:37:31.941Z,3.40
2022-07-25T12:39:59.910Z,3.92
2022-07-25T12:42:27.607Z,5.45
2022-07-25T12:44:55.751Z,4.50
2022-07-25T12:47:23.675Z,3.38
2022-07-25T12:49:51.294Z,3.67
2022-07-25T12:52:18.856Z,3.40
2022-07-25T12:54:46.381Z,9.00
2022-07-25T12:57:14.781Z,4.07
2022-07-25T12:59:42.980Z,2.30
2022-07-25T13:02:10.498Z,3.10
2022-07-25T13:04:38.191Z,1.88
2022-07-25T13:07:06.131Z,6.35
2022-07-25T13:09:33.731Z,4.00
2022-07-25T13:12:01.319Z,5.33
2022-07-25T13:14:28.927Z,3.30
2022-07-25T13:16:57.805Z,3.05
2022-07-25T13:19:25.404Z,4.45
2022-07-25T13:21:52.908Z,6.25
2022-07-25T13:24:20.441Z,2.85
2022-07-25T13:26:47.942Z,3.63
2022-07-25T13:29:15.468Z,2.47
2022-07-25T13:31:46.783Z,3.08
2022-07-25T13:34:14.591Z,5.85
2022-07-25T13:36:42.111Z,1.75
2022-07-25T13:39:10.056Z,3.37
2022-07-25T13:41:37.832Z,2.37
2022-07-25T13:44:05.469Z,3.50
2022-07-25T13:46:33.195Z,2.22
2022-07-25T13:49:00.894Z,2.47
2022-07-25T13:51:28.455Z,2.88
2022-07-25T13:53:55.958Z,2.63
2022-07-25T13:56:23.571Z,2.95
2022-07-25T13:58:51.136Z,3.08
2022-07-25T14:01:18.929Z,2.58
2022-07-25T14:03:46.538Z,3.60
2022-07-25T14:06:14.075Z,2.97
2022-07-25T14:08:41.568Z,4.80
2022-07-25T14:11:09.122Z,2.63
2022-07-25T14:13:37.359Z,2.73
2022-07-25T14:16:05.341Z,3.40
2022-07-25T14:18:40.024Z,5.53
2022-07-25T14:21:07.495Z,3.60
2022-07-25T14:23:35.044Z,6.73
2022-07-25T14:26:02.941Z,4.67
2022-07-25T14:28:30.772Z,3.93
2022-07-25T14:30:58.311Z,5.87
2022-07-25T14:33:25.956Z,5.10
2022-07-25T14:35:53.482Z,4.97
2022-07-25T14:38:21.082Z,9.43
2022-07-25T14:40:49.428Z,4.13
2022-07-25T14:43:16.937Z,4.83
2022-07-25T14:45:44.434Z,3.47
2022-07-25T14:48:11.961Z,4.30
2022-07-25T14:50:39.507Z,5.70
2022-07-25T14:53:07.019Z,7.60
2022-07-25T14:55:34.923Z,7.20
2022-07-25T14:58:02.487Z,6.00
2022-07-25T15:00:30.496Z,5.37
2022-07-25T15:02:58.105Z,6.83
2022-07-25T15:05:25.665Z,4.33
2022-07-25T15:07:53.165Z,4.03
2022-07-25T15:10:20.703Z,8.13
2022-07-25T15:12:54.337Z,8.33
2022-07-25T15:15:29.784Z,2.70
2022-07-25T15:17:58.122Z,4.07
2022-07-25T15:20:25.680Z,2.20
2022-07-25T15:22:53.445Z,3.40
2022-07-25T15:25:59.566Z,3.17
2022-07-25T15:28:08.854Z,2.50
2022-07-25T15:30:36.449Z,3.20
2022-07-25T15:33:04.058Z,5.23
2022-07-25T15:35:31.596Z,3.57
2022-07-25T15:37:59.107Z,4.60
2022-07-25T15:40:26.688Z,2.70
2022-07-25T15:42:54.257Z,2.80
2022-07-25T15:45:37.242Z,4.03
2022-07-25T15:48:06.693Z,2.33
2022-07-25T15:50:34.610Z,7.17
2022-07-25T15:53:02.183Z,2.67
2022-07-25T15:55:29.940Z,3.63
2022-07-25T15:57:57.498Z,2.47
2022-07-25T16:00:29.425Z,4.20
2022-07-25T16:02:57.601Z,2.97
2022-07-25T16:05:25.362Z,2.17
2022-07-25T16:07:53.178Z,4.77
2022-07-25T16:10:20.716Z,4.37
2022-07-25T16:12:48.282Z,5.47
2022-07-25T16:15:16.160Z,4.97
2022-07-25T16:17:45.894Z,11.47
2022-07-25T16:20:13.536Z,3.30
2022-07-25T16:22:41.378Z,6.57
2022-07-25T16:25:09.152Z,2.23
2022-07-25T16:27:36.940Z,5.10
2022-07-25T16:30:05.428Z,2.60
2022-07-25T16:32:32.943Z,2.53
2022-07-25T16:35:00.533Z,3.83
2022-07-25T16:37:28.265Z,2.23
2022-07-25T16:39:56.095Z,4.80
2022-07-25T16:42:23.660Z,3.87
2022-07-25T16:44:51.241Z,4.57
2022-07-25T16:47:18.783Z,6.60
2022-07-25T16:49:46.499Z,3.13
2022-07-25T16:52:14.259Z,2.57
2022-07-25T16:54:42.275Z,4.30
2022-07-25T16:57:10.179Z,7.23
2022-07-25T16:59:37.774Z,7.87
2022-07-25T17:02:05.324Z,3.87
2022-07-25T17:04:33.107Z,8.03
2022-07-25T17:07:00.706Z,4.10
2022-07-25T17:09:28.267Z,4.37
2022-07-25T17:11:55.922Z,4.10
2022-07-25T17:14:29.458Z,3.37
2022-07-25T17:16:57.985Z,5.93
2022-07-25T17:19:28.249Z,3.00
2022-07-25T17:21:55.851Z,3.93
2022-07-25T17:24:23.353Z,3.60
2022-07-25T17:26:51.977Z,3.60
2022-07-25T17:29:19.511Z,5.83
2022-07-25T17:31:47.136Z,4.87
2022-07-25T17:34:14.683Z,2.90
2022-07-25T17:36:43.871Z,6.30
2022-07-25T17:39:11.439Z,4.80
2022-07-25T17:41:39.066Z,3.47
2022-07-25T17:44:11.463Z,2.80
2022-07-25T17:46:39.464Z,3.90
2022-07-25T17:49:07.202Z,2.90
2022-07-25T17:51:34.830Z,2.93
2022-07-25T17:54:02.332Z,6.07
2022-07-25T17:56:29.863Z,3.57
2022-07-25T17:59:05.549Z,8.87
2022-07-25T18:01:33.116Z,4.47
2022-07-25T18:04:00.683Z,4.80
2022-07-25T18:06:30.035Z,5.23
2022-07-25T18:08:58.028Z,4.73
2022-07-25T18:11:25.557Z,3.27
2022-07-25T18:13:53.049Z,4.00
2022-07-25T18:16:20.700Z,5.83
2022-07-25T18:18:48.338Z,2.97
2022-07-25T18:21:15.850Z,3.20
2022-07-25T18:23:43.373Z,4.37
2022-07-25T18:26:11.105Z,4.40
2022-07-25T18:28:38.673Z,3.07
2022-07-25T18:31:06.284Z,3.47
2022-07-25T18:33:33.909Z,1.40
2022-07-25T18:36:06.954Z,2.47
2022-07-25T18:38:35.430Z,3.57
2022-07-25T18:41:27.557Z,3.70
2022-07-25T18:43:51.686Z,2.93
2022-07-25T18:46:19.530Z,5.57
2022-07-25T18:48:48.281Z,3.20
2022-07-25T18:51:15.980Z,2.70
2022-07-25T18:53:47.777Z,3.80
2022-07-25T18:56:16.337Z,2.20
2022-07-25T18:58:43.956Z,3.23
2022-07-25T19:01:11.868Z,2.00
2022-07-25T19:03:39.374Z,1.57
2022-07-25T19:06:08.216Z,2.77
2022-07-25T19:08:35.853Z,1.33
2022-07-25T19:11:03.633Z,1.87
2022-07-25T19:16:20.559Z,2.67
2022-07-25T19:18:48.816Z,2.17
2022-07-25T19:21:16.415Z,4.80
2022-07-25T19:23:49.988Z,3.33
2022-07-25T19:26:18.373Z,2.10
2022-07-25T19:28:45.978Z,2.00
2022-07-25T19:31:14.978Z,1.93
2022-07-25T19:33:42.688Z,2.33
2022-07-25T19:36:10.348Z,2.17
2022-07-25T19:38:37.883Z,1.67
2022-07-25T19:41:05.538Z,3.57
2022-07-25T19:43:33.126Z,1.60
2022-07-25T19:46:00.675Z,1.00
2022-07-25T19:48:28.193Z,2.13
2022-07-25T19:50:55.745Z,4.60
2022-07-25T19:53:28.192Z,2.37
2022-07-25T19:55:56.270Z,4.10
2022-07-25T19:58:23.915Z,3.83
2022-07-25T20:00:51.561Z,1.10
2022-07-25T20:03:23.091Z,1.30
2022-07-25T20:05:51.445Z,2.53
2022-07-25T20:08:18.995Z,4.93
2022-07-25T20:10:46.529Z,3.47
2022-07-25T20:13:14.073Z,1.93
2022-07-25T20:15:41.631Z,6.80
2022-07-25T20:18:09.170Z,2.43
2022-07-25T20:20:36.777Z,3.10
2022-07-25T20:23:04.301Z,2.03
2022-07-25T20:25:31.888Z,1.97
2022-07-25T20:27:59.389Z,2.87
2022-07-25T20:30:30.333Z,2.50
2022-07-25T20:33:00.561Z,2.93
2022-07-25T20:35:34.240Z,1.87
2022-07-25T20:38:02.646Z,3.17
2022-07-25T20:40:37.788Z,1.00
2022-07-25T20:43:08.351Z,2.27
2022-07-25T20:45:35.921Z,1.80
2022-07-25T20:48:04.055Z,2.40
2022-07-25T20:50:31.721Z,2.57
2022-07-25T20:52:59.198Z,2.37
2022-07-25T20:55:26.745Z,1.37
2022-07-25T20:57:54.221Z,1.60
2022-07-25T21:00:21.833Z,1.13
2022-07-25T21:02:49.439Z,3.23
2022-07-25T21:05:17.015Z,2.00
2022-07-25T21:07:44.542Z,3.77
2022-07-25T21:10:14.170Z,2.90
2022-07-25T21:12:41.764Z,2.47
2022-07-25T21:15:09.472Z,1.10
2022-07-25T21:17:36.921Z,1.70
2022-07-25T21:20:04.877Z,7.87
2022-07-25T21:22:32.389Z,7.30
2022-07-25T21:24:59.946Z,3.40
2022-07-25T21:27:27.462Z,2.53
2022-07-25T21:29:54.955Z,2.30
2022-07-25T21:32:22.525Z,2.80
2022-07-25T21:34:50.087Z,1.10
2022-07-25T21:37:17.571Z,3.33
2022-07-25T21:39:45.061Z,1.47
2022-07-25T21:42:12.525Z,1.87
2022-07-25T21:44:40.872Z,1.70
2022-07-25T21:47:08.919Z,1.97
2022-07-25T21:49:41.850Z,0.83
2022-07-25T21:52:13.415Z,3.17
2022-07-25T21:54:42.286Z,1.13
2022-07-25T21:57:13.693Z,3.23
2022-07-25T21:59:45.296Z,5.03
2022-07-25T22:02:13.002Z,2.13
2022-07-25T22:04:40.681Z,3.50
2022-07-25T22:07:08.191Z,2.90
2022-07-25T22:09:35.992Z,3.07
2022-07-25T22:12:03.503Z,2.30
2022-07-25T22:14:31.147Z,3.57
2022-07-25T22:16:58.766Z,6.57
2022-07-25T22:19:26.327Z,1.40
2022-07-25T22:21:53.858Z,5.70
2022-07-25T22:24:21.329Z,3.07
2022-07-25T22:26:48.951Z,3.63
2022-07-25T22:29:16.480Z,1.77
2022-07-25T22:31:44.034Z,2.03
2022-07-25T22:34:11.569Z,1.23
2022-07-25T22:36:39.061Z,3.10
2022-07-25T22:39:06.860Z,3.33
2022-07-25T22:41:34.553Z,1.40
2022-07-25T22:44:02.036Z,2.10
2022-07-25T22:46:30.201Z,4.17
2022-07-25T22:48:58.427Z,1.43
2022-07-25T22:51:26.287Z,2.97
2022-07-25T22:53:53.806Z,1.90
2022-07-25T22:56:21.567Z,4.90
2022-07-25T22:58:49.528Z,1.20
2022-07-25T23:01:17.901Z,4.13
2022-07-25T23:03:45.805Z,1.40
2022-07-25T23:06:13.466Z,3.33
2022-07-25T23:08:40.955Z,2.23
2022-07-25T23:11:08.756Z,2.17
2022-07-25T23:13:36.503Z,2.03
2022-07-25T23:16:04.912Z,2.97
2022-07-25T23:18:38.460Z,3.13
2022-07-25T23:21:06.519Z,1.53
2022-07-25T23:23:34.031Z,3.03
2022-07-25T23:26:01.548Z,2.43
2022-07-25T23:28:29.113Z,2.93
2022-07-25T23:30:56.632Z,3.50
2022-07-25T23:33:25.458Z,1.70
2022-07-25T23:35:53.798Z,2.93
2022-07-25T23:38:21.836Z,3.27
2022-07-25T23:40:49.672Z,2.73
2022-07-25T23:43:20.364Z,2.10
2022-07-25T23:46:04.689Z,5.33
2022-07-25T23:48:32.185Z,2.60
2022-07-25T23:50:59.737Z,3.13
2022-07-25T23:53:27.255Z,2.53
2022-07-25T23:55:54.714Z,5.40
2022-07-25T23:58:22.255Z,1.90
